Time;durP1;ratioP1;P1;durP2;ratioP2;P2;SDS_P1;SDS_P2;PMS_P1;PMS_P2;Temp;Humidity;BMP_temperature;BMP_pressure;BME280_temperature;BME280_humidity;BME280_pressure;Samples;Min_cycle;Max_cycle;Signal;HPM_P1;HPM_P2
2021/07/12 00:01:07;;;;;;;;;2.00;2.00;;;;;23.76;46.57;100635.00;5079161;27;45446;-49
2021/07/12 00:03:33;;;;;;;;;6.00;4.00;;;;;23.76;46.63;100627.06;5079013;27;45917;-50
2021/07/12 00:05:58;;;;;;;;;3.25;3.25;;;;;23.73;46.80;100608.78;5079045;27;45493;-48
2021/07/12 00:08:24;;;;;;;;;7.75;4.50;;;;;23.76;46.62;100615.66;5077467;28;45355;-48
2021/07/12 00:10:50;;;;;;;;;5.00;4.75;;;;;23.77;46.72;100606.75;5079295;27;45563;-49
2021/07/12 00:13:15;;;;;;;;;4.00;4.00;;;;;23.70;46.45;100603.72;5078664;27;46282;-49
2021/07/12 00:15:40;;;;;;;;;3.75;3.75;;;;;23.77;46.76;100601.47;5078645;27;45386;-48
2021/07/12 00:18:06;;;;;;;;;4.00;3.00;;;;;23.76;46.39;100595.31;5078793;27;45369;-49
2021/07/12 00:20:31;;;;;;;;;3.75;3.75;;;;;23.76;46.94;100578.59;5078862;27;45445;-49
2021/07/12 00:22:57;;;;;;;;;3.50;3.50;;;;;23.75;47.01;100572.50;5078291;27;45424;-49
2021/07/12 00:25:25;;;;;;;;;3.50;3.50;;;;;23.75;46.86;100576.91;5078795;27;45606;-49
2021/07/12 00:27:50;;;;;;;;;3.75;3.75;;;;;23.74;46.73;100575.22;5078791;27;45349;-49
2021/07/12 00:30:18;;;;;;;;;5.50;4.00;;;;;23.71;46.95;100560.44;5078532;27;45451;-49
2021/07/12 00:32:45;;;;;;;;;3.00;3.00;;;;;23.72;47.14;100561.25;5078374;28;45413;-48
2021/07/12 00:35:13;;;;;;;;;4.00;4.00;;;;;23.72;47.02;100559.47;5078286;27;45468;-49
2021/07/12 00:37:38;;;;;;;;;4.50;4.50;;;;;23.72;47.07;100567.41;5078029;27;45382;-48
2021/07/12 00:40:07;;;;;;;;;6.00;4.75;;;;;23.72;47.16;100579.78;5078378;27;45789;-51
2021/07/12 00:42:32;;;;;;;;;4.25;3.25;;;;;23.72;46.84;100609.75;5078087;27;46357;-49
2021/07/12 00:44:58;;;;;;;;;4.00;4.00;;;;;23.73;47.18;100615.88;5078124;27;45350;-48
2021/07/12 00:47:23;;;;;;;;;4.25;4.25;;;;;23.73;47.05;100610.56;5078653;27;45291;-48
2021/07/12 00:49:49;;;;;;;;;3.25;3.25;;;;;23.74;46.92;100623.72;5078250;28;45327;-50
2021/07/12 00:52:14;;;;;;;;;5.25;5.00;;;;;23.72;46.87;100620.34;5076927;27;45366;-52
2021/07/12 00:54:40;;;;;;;;;5.50;5.00;;;;;23.74;46.88;100618.44;5078028;27;45460;-50
2021/07/12 00:57:06;;;;;;;;;4.00;4.00;;;;;23.74;46.84;100623.72;5078004;27;45625;-49
2021/07/12 00:59:33;;;;;;;;;4.50;4.50;;;;;23.75;47.11;100619.25;5078322;27;45284;-49
2021/07/12 01:01:58;;;;;;;;;6.00;4.50;;;;;23.74;46.86;100615.78;5077794;27;46559;-52
2021/07/12 01:04:24;;;;;;;;;6.00;5.25;;;;;23.76;46.85;100615.66;5078157;27;45315;-49
2021/07/12 01:06:49;;;;;;;;;4.75;3.00;;;;;23.76;47.12;100605.06;5076598;28;45531;-49
2021/07/12 01:09:15;;;;;;;;;4.00;4.00;;;;;23.76;47.11;100599.78;5078039;28;45227;-50
2021/07/12 01:12:20;;;;;;;;;3.25;3.25;;;;;23.75;47.05;100596.31;5077478;28;45311;-49
2021/07/12 01:14:57;;;;;;;;;6.50;6.00;;;;;23.75;47.17;100585.72;5077795;28;45892;-52
2021/07/12 01:17:45;;;;;;;;;5.00;5.00;;;;;23.75;47.24;100577.78;5078207;27;45319;-50
2021/07/12 01:20:36;;;;;;;;;4.00;4.00;;;;;23.74;46.77;100569.94;5058115;27;45453;-49
2021/07/12 01:23:39;;;;;;;;;5.00;4.00;;;;;23.73;47.15;100553.22;5077351;27;46100;-49
2021/07/12 01:26:35;;;;;;;;;6.25;5.00;;;;;23.72;46.97;100542.72;5077160;28;45635;-49
2021/07/12 01:29:13;;;;;;;;;4.00;4.00;;;;;23.71;47.32;100544.56;5077583;28;45228;-50
2021/07/12 01:32:08;;;;;;;;;4.50;4.00;;;;;23.72;47.27;100545.38;5077642;27;45434;-49
2021/07/12 01:34:45;;;;;;;;;4.50;4.50;;;;;23.71;47.13;100533.09;5077489;27;46259;-49
2021/07/12 01:37:23;;;;;;;;;5.00;4.25;;;;;23.70;47.13;100521.69;5077259;27;45782;-58
2021/07/12 01:39:57;;;;;;;;;4.50;4.50;;;;;23.69;47.40;100519.16;5077188;27;45334;-58
2021/07/12 01:42:29;;;;;;;;;4.75;4.75;;;;;23.69;47.47;100514.72;5077859;28;45436;-49
2021/07/12 01:45:02;;;;;;;;;4.00;4.00;;;;;23.69;47.15;100517.34;5077499;27;46335;-50
2021/07/12 01:47:39;;;;;;;;;3.75;3.75;;;;;23.69;47.53;100508.59;5077089;28;45611;-49
2021/07/12 01:50:26;;;;;;;;;4.00;4.00;;;;;23.69;47.19;100508.59;5077241;27;45356;-48
2021/07/12 01:53:12;;;;;;;;;4.00;4.00;;;;;23.70;47.30;100510.28;5077359;28;45723;-51
2021/07/12 01:55:54;;;;;;;;;4.00;2.75;;;;;23.63;47.41;100500.13;5077101;27;45592;-49
2021/07/12 01:58:43;;;;;;;;;5.75;3.25;;;;;23.69;47.40;100504.13;5077074;28;45953;-51
2021/07/12 02:01:12;;;;;;;;;5.00;4.00;;;;;23.66;47.32;100509.63;5077150;27;45361;-49
2021/07/12 02:03:38;;;;;;;;;4.00;4.00;;;;;23.65;47.33;100515.88;5076959;27;45254;-48
2021/07/12 02:06:07;;;;;;;;;5.00;5.00;;;;;23.67;47.53;100516.63;5076692;27;45469;-48
2021/07/12 02:08:34;;;;;;;;;4.50;3.00;;;;;23.67;47.28;100521.09;5075632;28;45701;-48
2021/07/12 02:11:00;;;;;;;;;4.75;4.75;;;;;23.67;47.81;100531.66;5076854;27;45304;-48
2021/07/12 02:13:27;;;;;;;;;4.50;4.50;;;;;23.67;47.40;100526.38;5077355;27;45214;-49
2021/07/12 02:15:55;;;;;;;;;3.00;3.00;;;;;23.66;47.69;100530.81;5076731;27;46167;-50
2021/07/12 02:18:25;;;;;;;;;3.00;3.00;;;;;23.68;47.59;100530.72;5076446;27;45392;-52
2021/07/12 02:20:52;;;;;;;;;5.00;3.75;;;;;23.67;47.27;100535.13;5076836;27;45237;-48
2021/07/12 02:23:18;;;;;;;;;4.00;4.00;;;;;23.68;47.48;100539.47;5077074;27;45276;-51
2021/07/12 02:25:45;;;;;;;;;3.00;3.00;;;;;23.69;47.37;100538.53;5076616;27;45331;-49
2021/07/12 02:28:12;;;;;;;;;3.25;3.25;;;;;23.69;47.34;100533.22;5076542;27;45869;-52
2021/07/12 02:30:40;;;;;;;;;5.50;5.50;;;;;23.69;47.66;100535.88;5076668;27;45370;-49
2021/07/12 02:33:06;;;;;;;;;5.25;4.00;;;;;23.69;47.38;100533.22;5076914;27;45573;-52
2021/07/12 02:35:33;;;;;;;;;3.50;3.50;;;;;23.70;47.41;100528.81;5076405;28;45278;-49
2021/07/12 02:38:00;;;;;;;;;6.00;4.25;;;;;23.70;47.50;100528.81;5076688;27;45912;-50
2021/07/12 02:40:26;;;;;;;;;6.00;3.00;;;;;23.70;47.15;100524.34;5076868;27;45374;-50
2021/07/12 02:42:54;;;;;;;;;4.50;4.50;;;;;23.72;47.58;100526.84;5076833;27;45362;-49
2021/07/12 02:45:23;;;;;;;;;4.00;4.00;;;;;23.70;47.32;100524.34;5076280;27;46191;-49
2021/07/12 02:47:49;;;;;;;;;3.75;3.00;;;;;23.71;47.17;100525.16;5076361;28;45783;-52
2021/07/12 02:50:15;;;;;;;;;4.00;4.00;;;;;23.71;47.31;100517.22;5076374;27;45324;-49
2021/07/12 02:53:05;;;;;;;;;4.00;4.00;;;;;23.72;47.38;100513.63;5076589;27;45334;-49
2021/07/12 02:55:31;;;;;;;;;4.50;4.00;;;;;23.72;47.46;100510.97;5076410;28;46508;-49
2021/07/12 02:57:56;;;;;;;;;4.50;3.00;;;;;23.70;47.19;100505.81;5076578;28;45449;-49
2021/07/12 03:00:22;;;;;;;;;5.00;5.00;;;;;23.70;47.38;100495.22;5076337;27;45600;-52
2021/07/12 03:02:47;;;;;;;;;5.50;3.75;;;;;23.69;47.42;100495.34;5076432;27;45502;-49
2021/07/12 03:05:13;;;;;;;;;3.50;3.50;;;;;23.68;47.68;100486.56;5076043;27;45228;-50
2021/07/12 03:07:54;;;;;;;;;2.75;2.75;;;;;23.68;47.63;100473.34;5076073;27;45527;-52
2021/07/12 03:10:23;;;;;;;;;5.00;3.00;;;;;23.68;47.75;100475.16;5076089;27;45427;-49
2021/07/12 03:12:53;;;;;;;;;3.75;3.50;;;;;23.68;47.42;100481.28;5076371;27;45600;-54
2021/07/12 03:15:27;;;;;;;;;4.00;4.00;;;;;23.67;47.59;100473.47;5078546;27;45362;-49
2021/07/12 03:17:54;;;;;;;;;6.00;4.75;;;;;23.64;48.19;100463.94;5079502;27;45433;-54
2021/07/12 03:20:21;;;;;;;;;3.00;3.00;;;;;23.64;47.87;100440.16;5079649;27;45387;-49
2021/07/12 03:22:53;;;;;;;;;5.00;3.25;;;;;23.62;47.51;100437.59;5079802;27;45453;-49
2021/07/12 03:25:34;;;;;;;;;3.25;3.25;;;;;23.61;48.04;100448.31;5079353;27;46376;-58
2021/07/12 03:28:02;;;;;;;;;5.00;4.00;;;;;23.58;48.09;100445.88;5078493;28;45484;-49
2021/07/12 03:30:31;;;;;;;;;4.00;4.00;;;;;23.56;48.16;100442.50;5079628;27;45468;-51
2021/07/12 03:32:57;;;;;;;;;4.00;4.00;;;;;23.54;48.05;100436.47;5079789;27;45510;-56
2021/07/12 03:35:26;;;;;;;;;3.75;3.75;;;;;23.53;48.27;100438.28;5079025;27;46139;-58
2021/07/12 03:37:52;;;;;;;;;6.00;6.00;;;;;23.52;48.16;100425.19;5079235;27;45809;-57
2021/07/12 03:40:18;;;;;;;;;3.50;3.50;;;;;23.48;48.50;100427.22;5079228;27;45445;-58
2021/07/12 03:42:45;;;;;;;;;3.00;3.00;;;;;23.50;48.27;100425.28;5079513;27;45327;-58
2021/07/12 03:45:11;;;;;;;;;3.50;3.50;;;;;23.50;48.18;100424.44;5078924;27;46292;-59
2021/07/12 03:47:38;;;;;;;;;4.50;4.50;;;;;23.49;48.10;100422.75;5079101;27;45679;-58
2021/07/12 03:50:11;;;;;;;;;3.50;3.50;;;;;23.49;48.36;100428.88;5079200;27;45233;-56
2021/07/12 03:52:47;;;;;;;;;4.75;4.25;;;;;23.49;48.48;100428.06;5079349;27;45611;-58
2021/07/12 03:55:15;;;;;;;;;3.25;3.25;;;;;23.47;48.42;100431.66;5078789;27;46971;-59
2021/07/12 03:57:41;;;;;;;;;6.25;4.00;;;;;23.50;48.50;100435.03;5078887;27;45310;-58
2021/07/12 04:00:10;;;;;;;;;4.00;4.00;;;;;23.51;48.13;100436.72;5079078;27;45465;-55
2021/07/12 04:02:37;;;;;;;;;6.00;5.00;;;;;23.49;48.38;100428.88;5079052;27;45572;-57
2021/07/12 04:05:04;;;;;;;;;3.25;3.25;;;;;23.51;48.43;100426.13;5079047;27;46993;-58
2021/07/12 04:07:29;;;;;;;;;3.75;3.75;;;;;23.49;48.08;100423.59;5079083;27;45879;-59
2021/07/12 04:09:54;;;;;;;;;5.00;4.00;;;;;23.52;48.18;100426.00;5078787;28;45357;-59
2021/07/12 04:12:23;;;;;;;;;5.00;5.00;;;;;23.52;48.47;100406.66;5078523;28;47354;-58
2021/07/12 04:14:53;;;;;;;;;5.25;3.25;;;;;23.53;48.52;100411.00;5078638;27;46411;-59
2021/07/12 04:17:19;;;;;;;;;3.75;3.75;;;;;23.52;48.12;100419.91;5078611;27;45874;-57
2021/07/12 04:19:44;;;;;;;;;6.50;5.00;;;;;23.52;48.36;100433.94;5078698;27;45322;-57
2021/07/12 04:22:10;;;;;;;;;5.00;4.75;;;;;23.53;48.18;100438.28;5078799;27;45522;-59
2021/07/12 04:24:35;;;;;;;;;4.25;4.00;;;;;23.53;48.33;100440.94;5078464;27;46088;-58
2021/07/12 04:27:01;;;;;;;;;4.75;4.75;;;;;23.53;48.32;100437.47;5078812;27;45326;-59
2021/07/12 04:29:26;;;;;;;;;4.00;4.00;;;;;23.56;48.31;100447.78;5078669;27;45329;-60
2021/07/12 04:31:51;;;;;;;;;5.50;4.00;;;;;23.56;48.49;100446.00;5078673;27;45491;-53
2021/07/12 04:34:17;;;;;;;;;4.25;4.25;;;;;23.56;48.51;100445.16;5078418;27;45321;-53
2021/07/12 04:36:42;;;;;;;;;5.75;4.00;;;;;23.58;48.18;100438.81;5078466;28;45338;-53
2021/07/12 04:39:07;;;;;;;;;3.00;3.00;;;;;23.59;48.05;100444.91;5078235;27;45334;-50
2021/07/12 04:41:33;;;;;;;;;5.00;4.25;;;;;23.59;47.90;100442.28;5078664;28;45527;-57
2021/07/12 04:43:58;;;;;;;;;5.00;3.75;;;;;23.57;47.91;100438.91;5078243;27;45349;-57
2021/07/12 04:46:24;;;;;;;;;5.75;5.00;;;;;23.59;48.01;100439.63;5078204;27;45317;-58
2021/07/12 04:48:49;;;;;;;;;5.00;4.00;;;;;23.60;48.05;100446.59;5078187;27;45246;-53
2021/07/12 04:51:15;;;;;;;;;4.25;4.00;;;;;23.58;48.11;100444.09;5078265;28;45485;-55
2021/07/12 04:53:41;;;;;;;;;4.50;3.00;;;;;23.60;48.28;100430.75;5078013;27;45897;-52
2021/07/12 04:56:08;;;;;;;;;5.25;4.00;;;;;23.59;48.27;100440.47;5077902;27;45800;-54
2021/07/12 04:58:36;;;;;;;;;4.00;4.00;;;;;23.60;48.20;100442.16;5078432;27;45374;-55
2021/07/12 05:01:03;;;;;;;;;4.50;4.00;;;;;23.60;48.05;100438.69;5078621;27;45374;-56
2021/07/12 05:03:31;;;;;;;;;3.75;3.75;;;;;23.61;48.15;100435.06;5077971;27;45537;-53
2021/07/12 05:05:56;;;;;;;;;4.75;4.75;;;;;23.61;47.68;100435.06;5077878;27;45321;-58
2021/07/12 05:08:22;;;;;;;;;4.00;4.00;;;;;23.62;47.64;100428.81;5078210;27;45826;-59
2021/07/12 05:10:47;;;;;;;;;4.00;4.00;;;;;23.63;47.84;100425.22;5076759;28;45526;-56
2021/07/12 05:13:13;;;;;;;;;5.00;5.00;;;;;23.59;47.73;100418.47;5077710;28;45361;-59
2021/07/12 05:15:38;;;;;;;;;4.50;4.50;;;;;23.58;48.28;100417.63;5076625;28;45342;-58
2021/07/12 05:18:05;;;;;;;;;5.75;5.25;;;;;23.60;47.75;100414.88;5078288;27;45359;-55
2021/07/12 05:20:32;;;;;;;;;4.25;3.50;;;;;23.58;48.13;100407.06;5078101;27;45629;-58
2021/07/12 05:22:58;;;;;;;;;4.00;4.00;;;;;23.57;47.98;100405.38;5077362;27;46952;-57
2021/07/12 05:25:25;;;;;;;;;4.00;4.00;;;;;23.57;47.97;100409.78;5077824;27;45718;-58
2021/07/12 05:27:51;;;;;;;;;3.75;3.75;;;;;23.55;48.28;100406.41;5077739;27;45354;-59
2021/07/12 05:30:17;;;;;;;;;5.00;5.00;;;;;23.55;48.24;100404.63;5077745;27;45211;-58
2021/07/12 05:32:42;;;;;;;;;4.25;4.00;;;;;23.56;47.90;100408.97;5077374;27;46546;-59
2021/07/12 05:35:08;;;;;;;;;5.25;4.00;;;;;23.56;48.30;100408.09;5077677;28;45174;-59
2021/07/12 05:37:33;;;;;;;;;5.25;5.25;;;;;23.52;48.59;100398.72;5076967;27;45255;-59
2021/07/12 05:39:58;;;;;;;;;3.75;3.75;;;;;23.53;48.02;100405.72;5077380;27;45422;-58
2021/07/12 05:42:25;;;;;;;;;3.50;3.00;;;;;23.52;48.10;100401.38;5077457;27;45404;-58
2021/07/12 05:44:51;;;;;;;;;4.00;4.00;;;;;23.53;48.40;100408.38;5077180;27;45855;-58
2021/07/12 05:47:16;;;;;;;;;3.50;3.25;;;;;23.52;48.40;100410.16;5077323;27;45357;-59
2021/07/12 05:49:42;;;;;;;;;4.25;4.25;;;;;23.53;48.20;100408.38;5077563;27;45443;-59
2021/07/12 05:52:07;;;;;;;;;5.00;4.25;;;;;23.47;48.17;100402.56;5075702;27;51412;-59
2021/07/12 05:54:32;;;;;;;;;6.00;5.00;;;;;23.50;48.48;100411.22;5077086;27;45368;-59
2021/07/12 05:56:58;;;;;;;;;5.00;4.00;;;;;23.50;48.59;100411.22;5077242;27;45366;-58
2021/07/12 05:59:23;;;;;;;;;4.00;4.00;;;;;23.47;48.31;100407.03;5077303;28;45308;-54
2021/07/12 06:01:49;;;;;;;;;6.75;4.50;;;;;23.45;48.55;100403.63;5076959;27;46103;-49
2021/07/12 06:04:14;;;;;;;;;4.75;4.00;;;;;23.43;48.54;100397.63;5075836;28;45532;-49
2021/07/12 06:06:40;;;;;;;;;7.00;5.00;;;;;23.42;49.00;100388.84;5077447;27;45316;-53
2021/07/12 06:09:05;;;;;;;;;4.00;3.25;;;;;23.42;48.45;100391.50;5077623;27;45544;-48
2021/07/12 06:11:30;;;;;;;;;4.75;4.75;;;;;23.42;48.87;100395.94;5076607;28;46000;-57
2021/07/12 06:13:56;;;;;;;;;6.00;6.00;;;;;23.38;48.64;100390.03;5076832;28;45279;-59
2021/07/12 06:16:21;;;;;;;;;5.00;5.00;;;;;23.39;49.20;100396.16;5076908;28;45207;-49
2021/07/12 06:18:46;;;;;;;;;5.75;5.00;;;;;23.36;48.57;100393.75;5076982;28;45450;-49
2021/07/12 06:21:12;;;;;;;;;6.25;5.00;;;;;23.34;49.10;100391.19;5076436;28;46427;-54
2021/07/12 06:23:37;;;;;;;;;5.25;4.00;;;;;23.33;48.85;100386.88;5077030;27;45173;-55
2021/07/12 06:26:02;;;;;;;;;4.75;3.75;;;;;23.34;49.17;100404.44;5076737;28;45324;-58
2021/07/12 06:28:28;;;;;;;;;4.00;4.00;;;;;23.34;49.41;100398.31;5076811;27;45384;-51
2021/07/12 06:30:53;;;;;;;;;6.00;4.25;;;;;23.34;49.31;100396.50;5076478;27;45216;-54
2021/07/12 06:33:18;;;;;;;;;3.50;3.50;;;;;23.35;49.35;100389.41;5076515;27;45180;-59
2021/07/12 06:35:44;;;;;;;;;4.50;4.00;;;;;23.36;49.41;100381.34;5076561;28;45193;-48
2021/07/12 06:38:09;;;;;;;;;5.00;5.00;;;;;23.37;49.24;100371.66;5076955;28;45428;-58
2021/07/12 06:40:34;;;;;;;;;5.00;5.00;;;;;23.38;49.25;100368.88;5076408;27;45984;-58
2021/07/12 06:43:00;;;;;;;;;4.50;4.50;;;;;23.36;49.33;100359.38;5076374;28;45314;-51
2021/07/12 06:45:25;;;;;;;;;5.00;5.00;;;;;23.37;49.55;100359.25;5075292;27;45570;-48
2021/07/12 06:47:50;;;;;;;;;4.75;4.50;;;;;23.35;49.55;100353.22;5076618;27;45345;-47
2021/07/12 06:50:16;;;;;;;;;4.00;4.00;;;;;23.37;49.62;100342.56;5078706;28;46238;-51
2021/07/12 06:52:42;;;;;;;;;6.00;4.25;;;;;23.38;49.66;100326.56;5080005;27;45463;-52
2021/07/12 06:55:08;;;;;;;;;9.50;5.25;;;;;23.37;49.80;100335.44;5080372;27;45379;-53
2021/07/12 06:57:33;;;;;;;;;3.50;3.50;;;;;23.38;49.68;100357.44;5080167;27;45354;-54
2021/07/12 06:59:58;;;;;;;;;5.00;5.00;;;;;23.38;49.48;100379.44;5079719;27;45999;-52
2021/07/12 07:02:24;;;;;;;;;7.00;6.25;;;;;23.38;49.87;100384.75;5079878;27;45436;-56
2021/07/12 07:04:49;;;;;;;;;5.50;5.50;;;;;23.42;49.43;100404.72;5079968;27;45350;-49
2021/07/12 07:07:14;;;;;;;;;4.50;4.25;;;;;23.43;49.55;100405.56;5079878;28;45318;-51
2021/07/12 07:09:39;;;;;;;;;5.00;5.00;;;;;23.44;49.42;100389.56;5079799;27;52456;-49
2021/07/12 07:12:05;;;;;;;;;4.50;4.50;;;;;23.45;49.95;100399.19;5079485;27;45353;-51
2021/07/12 07:14:31;;;;;;;;;6.00;5.25;;;;;23.44;49.34;100384.25;5079820;27;45252;-47
2021/07/12 07:16:56;;;;;;;;;4.50;4.50;;;;;23.44;49.77;100386.91;5078655;28;45351;-53
2021/07/12 07:19:21;;;;;;;;;6.00;4.00;;;;;23.46;49.81;100398.22;5079423;27;45335;-52
2021/07/12 07:21:51;;;;;;;;;6.50;5.00;;;;;23.46;49.66;100398.22;5079233;28;47370;-53
2021/07/12 07:24:18;;;;;;;;;7.00;5.00;;;;;23.46;49.88;100387.66;5078998;27;45377;-54
2021/07/12 07:26:43;;;;;;;;;5.50;5.50;;;;;23.47;50.07;100391.97;5080061;27;45282;-48
2021/07/12 07:29:08;;;;;;;;;8.00;6.00;;;;;23.47;49.92;100405.19;5078041;28;45417;-48
2021/07/12 07:31:34;;;;;;;;;5.50;5.50;;;;;23.47;49.63;100407.84;5079253;27;45401;-48
2021/07/12 07:33:59;;;;;;;;;6.25;5.00;;;;;23.47;49.91;100399.91;5079464;27;45342;-51
2021/07/12 07:36:25;;;;;;;;;7.50;6.00;;;;;23.49;49.95;100396.31;5079260;27;45280;-53
2021/07/12 07:38:50;;;;;;;;;8.25;6.00;;;;;23.47;49.95;100384.03;5078792;28;46127;-52
2021/07/12 07:41:18;;;;;;;;;6.25;4.75;;;;;23.47;50.45;100383.22;5079128;27;45286;-51
2021/07/12 07:43:44;;;;;;;;;5.00;5.00;;;;;23.46;50.21;100387.66;5079544;28;45227;-54
2021/07/12 07:46:10;;;;;;;;;6.25;6.25;;;;;23.45;50.59;100396.53;5079617;27;45346;-54
2021/07/12 07:48:35;;;;;;;;;8.75;7.25;;;;;23.41;50.10;100381.88;5078988;27;45370;-51
2021/07/12 07:51:00;;;;;;;;;8.00;7.00;;;;;23.39;50.98;100375.84;5077143;28;45537;-51
2021/07/12 07:53:26;;;;;;;;;9.75;5.75;;;;;23.37;50.79;100369.81;5079048;27;45279;-54
2021/07/12 07:55:52;;;;;;;;;7.25;6.50;;;;;23.38;50.85;100379.44;5078944;27;45311;-55
2021/07/12 07:58:17;;;;;;;;;6.50;6.50;;;;;23.39;51.02;100375.84;5078909;27;46359;-58
2021/07/12 08:00:42;;;;;;;;;8.75;7.25;;;;;23.35;50.80;100358.50;5078646;27;45347;-53
2021/07/12 08:03:08;;;;;;;;;7.25;6.25;;;;;23.34;50.86;100367.41;5078941;27;45453;-58
2021/07/12 08:05:34;;;;;;;;;7.25;7.00;;;;;23.33;51.34;100357.78;5079043;27;45320;-56
2021/07/12 08:08:00;;;;;;;;;7.75;6.00;;;;;23.34;51.32;100356.81;5078700;28;46361;-58
2021/07/12 08:10:25;;;;;;;;;5.00;4.00;;;;;23.34;51.35;100354.19;5077292;27;45384;-54
2021/07/12 08:12:51;;;;;;;;;7.75;6.00;;;;;23.30;51.62;100350.94;5078821;27;45288;-54
2021/07/12 08:15:19;;;;;;;;;6.50;5.25;;;;;23.31;51.75;100347.31;5079049;27;45434;-54
2021/07/12 08:17:47;;;;;;;;;9.00;9.00;;;;;23.30;51.49;100350.09;5076979;27;45651;-53
2021/07/12 08:20:13;;;;;;;;;9.00;6.00;;;;;23.31;51.70;100357.06;5078723;27;45378;-51
2021/07/12 08:22:39;;;;;;;;;6.00;6.00;;;;;23.30;51.73;100356.22;5078659;27;45448;-50
2021/07/12 08:25:07;;;;;;;;;7.00;7.00;;;;;23.34;51.64;100363.94;5078769;27;45167;-51
2021/07/12 08:27:34;;;;;;;;;7.75;7.25;;;;;23.37;51.38;100367.19;5078436;27;46361;-49
2021/07/12 08:29:59;;;;;;;;;4.50;3.25;;;;;23.39;51.42;100385.56;5078426;27;45266;-54
2021/07/12 08:32:25;;;;;;;;;9.00;7.00;;;;;23.41;51.60;100400.38;5078481;27;45398;-54
2021/07/12 08:34:51;;;;;;;;;6.50;6.50;;;;;23.35;51.22;100390.25;5077144;28;45520;-58
2021/07/12 08:37:17;;;;;;;;;6.00;6.00;;;;;23.43;51.61;100409.03;5078561;27;46359;-57
2021/07/12 08:39:42;;;;;;;;;6.00;6.00;;;;;23.43;51.36;100418.78;5078271;27;45421;-50
2021/07/12 08:42:11;;;;;;;;;8.75;6.00;;;;;23.45;51.45;100412.41;5078354;27;45294;-52
2021/07/12 08:44:37;;;;;;;;;8.00;6.25;;;;;23.46;51.50;100419.38;5078503;27;45548;-51
2021/07/12 08:47:05;;;;;;;;;8.00;8.00;;;;;23.47;51.18;100418.44;5078086;27;45499;-50
2021/07/12 08:49:31;;;;;;;;;8.50;7.00;;;;;23.46;51.47;100408.81;5076730;27;45407;-48
2021/07/12 08:51:59;;;;;;;;;5.25;4.75;;;;;23.48;51.31;100414.00;5078090;27;45403;-48
2021/07/12 08:54:24;;;;;;;;;6.00;5.25;;;;;23.46;51.44;100418.56;5078467;27;45485;-48
2021/07/12 08:56:49;;;;;;;;;6.00;6.00;;;;;23.47;51.21;100423.72;5077913;28;46193;-53
2021/07/12 08:59:36;;;;;;;;;9.50;8.75;;;;;23.50;51.16;100424.44;5078298;27;45323;-48
2021/07/12 09:02:09;;;;;;;;;8.00;7.75;;;;;23.50;50.92;100421.81;5078017;27;45324;-49
2021/07/12 09:04:46;;;;;;;;;6.25;6.25;;;;;23.50;51.74;100417.34;5078103;27;45255;-48
2021/07/12 09:07:25;;;;;;;;;6.25;6.25;;;;;23.51;51.42;100415.56;5077619;27;46040;-52
2021/07/12 09:10:02;;;;;;;;;7.00;7.00;;;;;23.49;51.37;100412.19;5077807;28;45405;-57
2021/07/12 09:12:43;;;;;;;;;5.50;5.50;;;;;23.47;51.35;100410.50;5076950;27;45400;-50
2021/07/12 09:15:17;;;;;;;;;6.25;6.25;;;;;23.51;51.16;100415.56;5078170;27;45234;-52
2021/07/12 09:17:53;;;;;;;;;7.75;6.00;;;;;23.51;51.36;100421.69;5077588;27;46388;-58
2021/07/12 09:20:37;;;;;;;;;7.00;7.00;;;;;23.53;51.35;100416.28;5077704;27;45304;-48
2021/07/12 09:23:21;;;;;;;;;6.00;6.00;;;;;23.53;51.48;100417.13;5077691;27;45319;-51
2021/07/12 09:26:03;;;;;;;;;7.25;5.50;;;;;23.50;51.36;100420.00;5078168;27;45313;-56
2021/07/12 09:28:44;;;;;;;;;6.25;5.75;;;;;23.53;51.77;100430.34;5077415;27;46184;-56
2021/07/12 09:31:29;;;;;;;;;5.50;5.50;;;;;23.53;51.65;100434.81;5077561;27;45477;-57
2021/07/12 09:33:54;;;;;;;;;5.00;5.00;;;;;23.51;51.08;100432.25;5076417;27;45274;-57
2021/07/12 09:36:21;;;;;;;;;6.00;5.50;;;;;23.52;51.75;100438.41;5077756;27;45339;-53
2021/07/12 09:38:47;;;;;;;;;7.75;6.50;;;;;23.52;51.42;100439.25;5077613;28;45358;-58
2021/07/12 09:41:28;;;;;;;;;4.75;4.75;;;;;23.52;51.72;100435.75;5077340;27;45481;-53
2021/07/12 09:44:01;;;;;;;;;9.00;6.25;;;;;23.51;51.96;100445.47;5077617;28;45452;-57
2021/07/12 09:46:30;;;;;;;;;6.00;6.00;;;;;23.52;51.57;100449.00;5077589;27;45409;-48
2021/07/12 09:49:12;;;;;;;;;6.00;5.25;;;;;23.49;51.43;100444.75;5077223;27;45683;-49
2021/07/12 09:51:38;;;;;;;;;7.25;5.50;;;;;23.51;51.70;100453.41;5077033;27;45630;-48
2021/07/12 09:54:15;;;;;;;;;5.25;5.00;;;;;23.52;51.93;100454.28;5077346;28;45185;-49
2021/07/12 09:56:40;;;;;;;;;6.25;6.25;;;;;23.52;52.12;100454.28;5077417;28;46084;-50
2021/07/12 09:59:06;;;;;;;;;7.50;6.50;;;;;23.51;52.27;100450.78;5077100;28;45370;-48
2021/07/12 10:01:31;;;;;;;;;8.25;6.25;;;;;23.51;52.25;100447.31;5076974;27;45317;-49
2021/07/12 10:03:59;;;;;;;;;8.50;6.50;;;;;23.49;52.22;100449.22;5077169;27;45361;-48
2021/07/12 10:06:24;;;;;;;;;5.75;5.75;;;;;23.47;52.41;100455.47;5077277;27;45431;-51
2021/07/12 10:08:51;;;;;;;;;7.50;7.50;;;;;23.47;52.34;100455.47;5077216;27;45262;-49
2021/07/12 10:11:17;;;;;;;;;7.00;6.00;;;;;23.46;52.74;100451.13;5077174;27;45688;-52
2021/07/12 10:13:43;;;;;;;;;8.25;6.25;;;;;23.46;52.36;100467.00;5075639;28;45315;-52
2021/07/12 10:16:08;;;;;;;;;9.50;7.00;;;;;23.46;52.58;100463.50;5077005;27;45559;-53
2021/07/12 10:18:33;;;;;;;;;1.00;1.00;;;;;23.46;52.78;100456.41;5076191;28;60689;-52
2021/07/12 10:20:59;;;;;;;;;5.50;5.50;;;;;23.47;52.38;100452.81;5076533;28;45243;-49
2021/07/12 10:23:24;;;;;;;;;8.00;6.75;;;;;23.47;52.28;100451.97;5076639;27;45617;-48
2021/07/12 10:25:53;;;;;;;;;6.25;5.25;;;;;23.49;52.61;100447.41;5077292;27;45556;-48
2021/07/12 10:28:37;;;;;;;;;5.50;5.50;;;;;23.49;52.47;100444.75;5077003;27;45358;-50
2021/07/12 10:31:19;;;;;;;;;6.75;5.25;;;;;23.49;52.77;100443.91;5076428;27;45355;-51
2021/07/12 10:33:45;;;;;;;;;6.00;6.00;;;;;23.51;53.02;100444.66;5076607;27;45369;-49
2021/07/12 10:36:10;;;;;;;;;7.50;6.00;;;;;23.52;52.91;100433.13;5076731;27;45314;-50
2021/07/12 10:38:37;;;;;;;;;9.50;7.00;;;;;23.53;52.86;100440.09;5076207;27;46260;-52
2021/07/12 10:41:23;;;;;;;;;6.25;6.00;;;;;23.52;53.32;100439.25;5076422;27;45688;-55
2021/07/12 10:43:53;;;;;;;;;7.25;6.00;;;;;23.51;52.89;100434.91;5076885;28;45413;-48
2021/07/12 10:46:28;;;;;;;;;8.50;5.75;;;;;23.55;52.71;100432.88;5077111;27;45336;-47
2021/07/12 10:48:54;;;;;;;;;7.00;7.00;;;;;23.56;52.89;100423.97;5076355;27;46450;-47
2021/07/12 10:51:24;;;;;;;;;7.00;6.25;;;;;23.59;53.12;100429.88;5076519;28;45501;-47
2021/07/12 10:54:00;;;;;;;;;8.75;6.00;;;;;23.60;53.14;100420.97;5076753;27;45311;-48
2021/07/12 10:56:54;;;;;;;;;6.00;5.00;;;;;23.63;53.02;100415.47;5076492;27;45267;-47
2021/07/12 10:59:38;;;;;;;;;8.50;6.75;;;;;23.66;52.97;100413.56;5076597;27;46181;-49
2021/07/12 11:02:24;;;;;;;;;6.50;6.00;;;;;23.69;52.67;100413.34;5076239;27;45267;-53
2021/07/12 11:05:04;;;;;;;;;6.50;6.00;;;;;23.69;52.72;100402.75;5076728;28;45886;-50
2021/07/12 11:07:58;;;;;;;;;5.00;5.00;;;;;23.71;52.78;100406.97;5076356;27;45464;-51
2021/07/12 11:10:28;;;;;;;;;6.25;6.25;;;;;23.70;52.91;100399.97;5058630;27;45989;-51
2021/07/12 11:13:00;;;;;;;;;8.00;7.00;;;;;23.74;52.98;100393.50;5076397;27;45325;-58
2021/07/12 11:15:28;;;;;;;;;7.75;7.25;;;;;23.75;52.88;100395.19;5076232;27;45394;-57
2021/07/12 11:18:29;;;;;;;;;5.00;5.00;;;;;23.76;52.76;100391.56;5076698;27;45378;-57
2021/07/12 11:20:58;;;;;;;;;9.50;7.75;;;;;23.77;52.94;100387.97;5076381;28;46279;-48
2021/07/12 11:23:40;;;;;;;;;5.50;5.50;;;;;23.77;53.09;100393.25;5076160;27;45493;-50
2021/07/12 11:26:21;;;;;;;;;7.00;7.00;;;;;23.78;52.83;100381.72;5074909;28;45389;-47
2021/07/12 11:29:00;;;;;;;;;5.50;5.00;;;;;23.81;52.48;100393.03;5076168;28;45251;-57
2021/07/12 11:31:47;;;;;;;;;5.00;5.00;;;;;23.81;52.60;100382.44;5075701;27;47889;-50
2021/07/12 11:34:17;;;;;;;;;6.00;6.00;;;;;23.80;52.43;100378.09;5075878;28;45783;-55